createdAt,value
2019-02-24T00:02:10.407Z,84.72
2019-02-24T00:04:43.976Z,86.12
2019-02-24T00:07:16.095Z,92.62
2019-02-24T00:09:48.578Z,89.80
2019-02-24T00:12:21.510Z,83.62
2019-02-24T00:14:53.862Z,85.20
2019-02-24T00:17:26.303Z,98.15
2019-02-24T00:19:58.715Z,103.05
2019-02-24T00:22:30.964Z,95.57
2019-02-24T00:25:03.392Z,93.07
2019-02-24T00:27:35.726Z,98.27
2019-02-24T00:30:09.236Z,102.15
2019-02-24T00:32:41.593Z,92.97
2019-02-24T00:35:14.124Z,100.62
2019-02-24T00:37:46.765Z,96.50
2019-02-24T00:40:19.190Z,104.72
2019-02-24T00:42:51.640Z,109.03
2019-02-24T00:45:24.165Z,93.60
2019-02-24T00:47:56.627Z,101.47
2019-02-24T00:50:28.742Z,92.37
2019-02-24T00:53:01.303Z,98.75
2019-02-24T00:55:33.860Z,88.90
2019-02-24T00:58:06.400Z,103.22
2019-02-24T01:00:38.644Z,88.78
2019-02-24T01:03:10.922Z,90.60
2019-02-24T01:05:44.132Z,86.28
2019-02-24T01:08:16.538Z,87.05
2019-02-24T01:10:49.090Z,84.25
2019-02-24T01:13:22.390Z,87.97
2019-02-24T01:15:55.482Z,85.05
2019-02-24T01:18:28.080Z,85.57
2019-02-24T01:21:01.818Z,89.03
2019-02-24T01:23:34.172Z,84.25
2019-02-24T01:26:06.561Z,81.90
2019-02-24T01:28:39.243Z,85.55
2019-02-24T01:31:11.812Z,90.50
2019-02-24T01:33:44.354Z,88.00
2019-02-24T01:36:16.762Z,87.65
2019-02-24T01:38:49.385Z,93.30
2019-02-24T01:41:21.976Z,94.80
2019-02-24T01:43:54.732Z,88.25
2019-02-24T01:46:27.019Z,89.52
2019-02-24T01:48:59.459Z,86.63
2019-02-24T01:51:31.833Z,90.32
2019-02-24T01:54:04.206Z,87.47
2019-02-24T01:56:36.716Z,82.17
2019-02-24T01:59:09.282Z,88.37
2019-02-24T02:01:41.641Z,89.17
2019-02-24T02:04:14.267Z,84.35
2019-02-24T02:06:46.911Z,80.45
2019-02-24T02:09:19.569Z,91.65
2019-02-24T02:11:52.305Z,87.53
2019-02-24T02:14:24.847Z,85.10
2019-02-24T02:16:57.475Z,82.92
2019-02-24T02:19:30.029Z,84.50
2019-02-24T02:22:02.816Z,90.92
2019-02-24T02:24:35.275Z,84.45
2019-02-24T02:27:08.486Z,77.82
2019-02-24T02:29:41.051Z,77.08
2019-02-24T02:32:13.673Z,73.37
2019-02-24T02:34:45.888Z,74.45
2019-02-24T02:37:18.388Z,74.95
2019-02-24T02:39:51.040Z,70.12
2019-02-24T02:42:23.713Z,73.42
2019-02-24T02:44:55.952Z,72.92
2019-02-24T02:47:28.082Z,74.60
2019-02-24T02:50:01.166Z,70.20
2019-02-24T02:52:33.800Z,70.97
2019-02-24T02:55:07.710Z,69.20
2019-02-24T02:57:40.251Z,73.75
2019-02-24T03:00:15.585Z,69.62
2019-02-24T03:02:48.462Z,78.00
2019-02-24T03:05:20.938Z,71.20
2019-02-24T03:07:54.438Z,70.95
2019-02-24T03:10:26.813Z,70.17
2019-02-24T03:12:59.217Z,68.55
2019-02-24T03:15:31.807Z,76.05
2019-02-24T03:18:03.917Z,78.55
2019-02-24T03:20:36.050Z,75.25
2019-02-24T03:23:08.504Z,73.20
2019-02-24T03:25:41.059Z,71.02
2019-02-24T03:28:13.586Z,72.75
2019-02-24T03:30:47.367Z,71.62
2019-02-24T03:33:19.677Z,66.45
2019-02-24T03:35:51.965Z,66.67
2019-02-24T03:38:24.531Z,71.50
2019-02-24T03:40:56.735Z,68.60
2019-02-24T03:43:29.205Z,63.85
2019-02-24T03:46:01.464Z,66.45
2019-02-24T03:48:33.600Z,71.15
2019-02-24T03:51:06.301Z,65.03
2019-02-24T03:53:38.442Z,63.48
2019-02-24T03:56:11.855Z,63.70
2019-02-24T03:58:44.162Z,62.43
2019-02-24T04:01:16.469Z,62.88
2019-02-24T04:03:49.132Z,63.90
2019-02-24T04:06:21.444Z,60.38
2019-02-24T04:08:53.996Z,63.58
2019-02-24T04:11:26.287Z,64.80
2019-02-24T04:13:59.011Z,62.38
2019-02-24T04:16:31.503Z,62.17
2019-02-24T04:19:03.777Z,60.12
2019-02-24T04:21:36.037Z,59.27
2019-02-24T04:24:08.777Z,59.23
2019-02-24T04:26:41.258Z,59.03
2019-02-24T04:29:13.988Z,56.63
2019-02-24T04:31:46.254Z,57.50
2019-02-24T04:34:18.947Z,75.60
2019-02-24T04:36:51.307Z,58.02
2019-02-24T04:39:24.046Z,59.63
2019-02-24T04:41:58.404Z,60.03
2019-02-24T04:44:30.782Z,59.73
2019-02-24T04:47:03.042Z,61.08
2019-02-24T04:49:35.381Z,65.62
2019-02-24T04:52:08.765Z,55.25
2019-02-24T04:54:41.432Z,55.75
2019-02-24T04:57:14.263Z,55.95
2019-02-24T04:59:46.613Z,52.20
2019-02-24T05:02:19.031Z,50.73
2019-02-24T05:04:52.074Z,53.35
2019-02-24T05:07:24.322Z,49.80
2019-02-24T05:09:56.468Z,50.67
2019-02-24T05:12:28.785Z,54.27
2019-02-24T05:15:02.491Z,52.62
2019-02-24T05:17:35.870Z,48.83
2019-02-24T05:20:09.968Z,48.70
2019-02-24T05:22:42.677Z,53.17
2019-02-24T05:25:15.359Z,49.33
2019-02-24T05:27:48.129Z,48.28
2019-02-24T05:30:20.586Z,47.43
2019-02-24T05:32:52.715Z,50.98
2019-02-24T05:35:25.160Z,48.83
2019-02-24T05:37:57.653Z,51.88
2019-02-24T05:40:29.812Z,50.33
2019-02-24T05:43:03.043Z,49.73
2019-02-24T05:45:35.280Z,56.25
2019-02-24T05:48:07.634Z,49.98
2019-02-24T05:50:39.822Z,47.83
2019-02-24T05:53:12.482Z,48.28
2019-02-24T05:55:45.143Z,48.13
2019-02-24T05:58:17.857Z,49.83
2019-02-24T06:00:50.618Z,47.03
2019-02-24T06:03:23.502Z,44.73
2019-02-24T06:05:56.814Z,43.30
2019-02-24T06:08:29.069Z,41.23
2019-02-24T06:11:01.710Z,41.77
2019-02-24T06:13:33.886Z,41.68
2019-02-24T06:16:06.129Z,41.53
2019-02-24T06:18:38.298Z,40.58
2019-02-24T06:21:10.715Z,38.98
2019-02-24T06:23:42.963Z,39.20
2019-02-24T06:26:15.515Z,38.63
2019-02-24T06:28:47.764Z,37.25
2019-02-24T06:31:19.931Z,37.80
2019-02-24T06:33:52.563Z,37.35
2019-02-24T06:36:24.793Z,38.25
2019-02-24T06:38:57.116Z,36.68
2019-02-24T06:41:29.589Z,38.63
2019-02-24T06:44:02.331Z,38.15
2019-02-24T06:46:34.973Z,38.02
2019-02-24T06:49:07.153Z,39.20
2019-02-24T06:51:39.468Z,42.38
2019-02-24T06:54:11.779Z,39.83
2019-02-24T06:56:44.486Z,39.53
2019-02-24T06:59:16.727Z,39.10
2019-02-24T07:01:49.063Z,39.73
2019-02-24T07:04:21.899Z,36.03
2019-02-24T07:06:54.312Z,38.50
2019-02-24T07:09:26.631Z,37.23
2019-02-24T07:11:59.756Z,38.80
2019-02-24T07:14:32.032Z,37.45
2019-02-24T07:17:04.311Z,38.80
2019-02-24T07:19:36.840Z,40.03
2019-02-24T07:22:09.844Z,40.35
2019-02-24T07:24:42.346Z,38.28
2019-02-24T07:27:14.618Z,37.88
2019-02-24T07:29:46.770Z,37.88
2019-02-24T07:32:19.069Z,37.23
2019-02-24T07:34:51.400Z,36.38
2019-02-24T07:37:23.902Z,38.40
2019-02-24T07:39:56.122Z,34.35
2019-02-24T07:42:28.563Z,34.60
2019-02-24T07:45:01.992Z,32.85
2019-02-24T07:47:34.554Z,33.65
2019-02-24T07:50:09.155Z,30.45
2019-02-24T07:52:41.632Z,32.78
2019-02-24T07:55:14.765Z,32.93
2019-02-24T07:57:47.675Z,33.58
2019-02-24T08:00:19.940Z,34.75
2019-02-24T08:02:52.359Z,34.05
2019-02-24T08:05:25.600Z,33.83
2019-02-24T08:07:58.017Z,39.90
2019-02-24T08:10:30.507Z,33.45
2019-02-24T08:13:02.749Z,32.48
2019-02-24T08:15:36.219Z,32.45
2019-02-24T08:18:08.380Z,33.90
2019-02-24T08:20:40.889Z,33.98
2019-02-24T08:23:13.823Z,30.77
2019-02-24T08:25:46.202Z,30.35
2019-02-24T08:28:19.720Z,30.70
2019-02-24T08:30:52.124Z,31.35
2019-02-24T08:33:24.352Z,31.45
2019-02-24T08:35:56.949Z,31.93
2019-02-24T08:38:29.263Z,30.92
2019-02-24T08:41:01.621Z,30.60
2019-02-24T08:43:33.859Z,31.48
2019-02-24T08:46:07.959Z,31.75
2019-02-24T08:48:40.356Z,27.73
2019-02-24T08:51:12.855Z,27.65
2019-02-24T08:53:45.977Z,32.45
2019-02-24T08:56:18.417Z,29.52
2019-02-24T08:58:51.121Z,29.67
2019-02-24T09:01:23.515Z,30.60
2019-02-24T09:03:55.715Z,30.52
2019-02-24T09:06:28.168Z,31.33
2019-02-24T09:08:59.232Z,29.45
2019-02-24T09:11:31.497Z,28.47
2019-02-24T09:14:03.665Z,30.50
2019-02-24T09:16:36.064Z,29.70
2019-02-24T09:19:08.489Z,32.53
2019-02-24T09:21:40.750Z,29.27
2019-02-24T09:24:13.253Z,33.35
2019-02-24T09:26:45.873Z,28.52
2019-02-24T09:29:18.183Z,29.32
2019-02-24T09:31:50.562Z,31.75
2019-02-24T09:34:22.879Z,28.15
2019-02-24T09:36:55.794Z,28.75
2019-02-24T09:39:28.121Z,27.17
2019-02-24T09:42:00.678Z,29.20
2019-02-24T09:44:33.501Z,28.90
2019-02-24T09:47:05.840Z,27.45
2019-02-24T09:49:38.344Z,27.85
2019-02-24T09:52:10.628Z,28.70
2019-02-24T09:54:43.032Z,31.73
2019-02-24T09:57:15.422Z,28.02
2019-02-24T09:59:47.676Z,27.13
2019-02-24T10:02:20.026Z,27.35
2019-02-24T10:04:52.674Z,31.12
2019-02-24T10:07:25.380Z,27.75
2019-02-24T10:09:57.646Z,27.40
2019-02-24T10:12:30.361Z,27.48
2019-02-24T10:15:02.936Z,30.25
2019-02-24T10:17:36.112Z,25.40
2019-02-24T10:20:11.162Z,32.00
2019-02-24T10:22:43.464Z,29.82
2019-02-24T10:25:16.122Z,28.30
2019-02-24T10:27:48.661Z,29.50
2019-02-24T10:30:21.448Z,26.73
2019-02-24T10:32:53.831Z,26.35
2019-02-24T10:35:26.382Z,28.42
2019-02-24T10:37:58.798Z,28.38
2019-02-24T10:40:31.226Z,28.17
2019-02-24T10:43:04.160Z,31.27
2019-02-24T10:45:36.732Z,30.10
2019-02-24T10:48:14.039Z,29.37
2019-02-24T10:50:43.221Z,31.30
2019-02-24T10:53:15.689Z,37.70
2019-02-24T10:55:48.130Z,30.97
2019-02-24T10:58:21.282Z,40.05
2019-02-24T11:00:53.788Z,32.95
2019-02-24T11:03:26.014Z,33.10
2019-02-24T11:05:58.591Z,45.08
2019-02-24T11:08:31.307Z,37.83
2019-02-24T11:11:04.040Z,36.08
2019-02-24T11:13:36.480Z,35.20
2019-02-24T11:16:09.844Z,39.15
2019-02-24T11:18:42.242Z,44.77
2019-02-24T11:21:14.488Z,46.37
2019-02-24T11:23:47.388Z,43.10
2019-02-24T11:26:19.826Z,41.92
2019-02-24T11:28:52.746Z,50.03
2019-02-24T11:31:25.196Z,46.08
2019-02-24T11:33:57.585Z,48.95
2019-02-24T11:36:29.969Z,45.20
2019-02-24T11:39:02.854Z,43.98
2019-02-24T11:41:36.824Z,49.20
2019-02-24T11:44:09.400Z,44.93
2019-02-24T11:46:42.073Z,58.50
2019-02-24T11:49:14.484Z,52.80
2019-02-24T11:51:46.836Z,64.12
2019-02-24T11:54:19.361Z,53.55
2019-02-24T11:56:51.649Z,52.03
2019-02-24T11:59:24.183Z,83.97
2019-02-24T12:01:56.395Z,154.63
2019-02-24T12:04:28.815Z,219.15
2019-02-24T12:07:01.014Z,60.67
2019-02-24T12:09:34.754Z,53.30
2019-02-24T12:12:06.987Z,65.60
2019-02-24T12:14:39.265Z,68.83
2019-02-24T12:17:11.495Z,63.10
2019-02-24T12:19:43.982Z,59.18
2019-02-24T12:22:16.629Z,60.10
2019-02-24T12:24:49.019Z,54.63
2019-02-24T12:27:21.263Z,62.88
2019-02-24T12:29:53.552Z,74.05
2019-02-24T12:32:25.860Z,66.45
2019-02-24T12:34:58.209Z,67.87
2019-02-24T12:37:30.454Z,71.97
2019-02-24T12:40:02.603Z,99.80
2019-02-24T12:42:35.385Z,111.70
2019-02-24T12:45:11.019Z,109.72
2019-02-24T12:47:43.396Z,114.85
2019-02-24T12:50:18.449Z,101.60
